sensor_id;sensor_type;location;lat;lon;timestamp;pressure;altitude;pressure_sealevel;temperature;humidity
69411;BME280;56604;48.652;9.194;2023-07-31T00:00:10;96330.66;;;14.94;74.41
69411;BME280;56604;48.652;9.194;2023-07-31T00:02:36;96321.16;;;14.88;74.16
69411;BME280;56604;48.652;9.194;2023-07-31T00:05:01;96321.94;;;14.88;74.03
69411;BME280;56604;48.652;9.194;2023-07-31T00:07:27;96321.72;;;14.84;74.43
69411;BME280;56604;48.652;9.194;2023-07-31T00:09:52;96321.47;;;14.81;74.58
69411;BME280;56604;48.652;9.194;2023-07-31T00:12:19;96322.25;;;14.87;74.47
69411;BME280;56604;48.652;9.194;2023-07-31T00:14:45;96321.41;;;14.91;74.10
69411;BME280;56604;48.652;9.194;2023-07-31T00:17:10;96322.75;;;14.89;74.41
69411;BME280;56604;48.652;9.194;2023-07-31T00:19:36;96326.97;;;14.95;73.80
69411;BME280;56604;48.652;9.194;2023-07-31T00:22:01;96335.41;;;14.97;74.93
69411;BME280;56604;48.652;9.194;2023-07-31T00:24:26;96333.84;;;14.91;74.22
69411;BME280;56604;48.652;9.194;2023-07-31T00:26:52;96337.56;;;14.90;74.37
69411;BME280;56604;48.652;9.194;2023-07-31T00:29:17;96340.22;;;14.90;74.79
69411;BME280;56604;48.652;9.194;2023-07-31T00:31:42;96345.81;;;14.83;74.66
69411;BME280;56604;48.652;9.194;2023-07-31T00:34:07;96337.81;;;14.88;75.49
69411;BME280;56604;48.652;9.194;2023-07-31T00:36:33;96333.09;;;14.85;74.93
69411;BME280;56604;48.652;9.194;2023-07-31T00:38:58;96335.19;;;14.88;75.85
69411;BME280;56604;48.652;9.194;2023-07-31T00:41:23;96330.19;;;14.81;75.47
69411;BME280;56604;48.652;9.194;2023-07-31T00:43:48;96331.19;;;14.91;77.22
69411;BME280;56604;48.652;9.194;2023-07-31T00:46:14;96324.34;;;14.90;75.94
69411;BME280;56604;48.652;9.194;2023-07-31T00:48:39;96322.22;;;14.92;74.97
69411;BME280;56604;48.652;9.194;2023-07-31T00:51:07;96319.84;;;14.85;74.70
69411;BME280;56604;48.652;9.194;2023-07-31T00:53:33;96316.16;;;14.86;75.71
69411;BME280;56604;48.652;9.194;2023-07-31T00:55:59;96314.00;;;14.88;74.66
69411;BME280;56604;48.652;9.194;2023-07-31T00:58:24;96306.56;;;14.95;75.80
69411;BME280;56604;48.652;9.194;2023-07-31T01:00:49;96311.13;;;14.84;74.84
69411;BME280;56604;48.652;9.194;2023-07-31T01:03:15;96311.09;;;14.90;75.27
69411;BME280;56604;48.652;9.194;2023-07-31T01:11:29;96311.88;;;14.90;76.26
69411;BME280;56604;48.652;9.194;2023-07-31T01:13:55;96309.03;;;14.81;75.81
69411;BME280;56604;48.652;9.194;2023-07-31T01:16:21;96305.59;;;14.81;76.02
69411;BME280;56604;48.652;9.194;2023-07-31T01:18:47;96303.22;;;14.79;76.45
69411;BME280;56604;48.652;9.194;2023-07-31T01:21:23;96295.84;;;14.71;76.03
69411;BME280;56604;48.652;9.194;2023-07-31T01:26:58;96281.81;;;14.71;76.43
69411;BME280;56604;48.652;9.194;2023-07-31T01:29:43;96282.16;;;14.59;76.06
69411;BME280;56604;48.652;9.194;2023-07-31T01:32:11;96285.81;;;14.68;76.83
69411;BME280;56604;48.652;9.194;2023-07-31T01:34:39;96285.78;;;14.73;75.99
69411;BME280;56604;48.652;9.194;2023-07-31T01:37:05;96273.06;;;14.75;76.66
69411;BME280;56604;48.652;9.194;2023-07-31T01:39:30;96278.38;;;14.75;76.24
69411;BME280;56604;48.652;9.194;2023-07-31T01:41:55;96279.38;;;14.79;76.28
69411;BME280;56604;48.652;9.194;2023-07-31T01:44:21;96276.47;;;14.81;76.19
69411;BME280;56604;48.652;9.194;2023-07-31T01:46:46;96279.13;;;14.81;75.88
69411;BME280;56604;48.652;9.194;2023-07-31T01:49:11;96279.97;;;14.71;75.94
69411;BME280;56604;48.652;9.194;2023-07-31T01:51:36;96277.41;;;14.56;76.72
69411;BME280;56604;48.652;9.194;2023-07-31T01:54:02;96270.56;;;14.55;76.41
69411;BME280;56604;48.652;9.194;2023-07-31T01:56:28;96274.25;;;14.49;76.66
69411;BME280;56604;48.652;9.194;2023-07-31T01:58:53;96272.41;;;14.49;76.73
69411;BME280;56604;48.652;9.194;2023-07-31T02:01:18;96268.22;;;14.43;76.76
69411;BME280;56604;48.652;9.194;2023-07-31T02:03:44;96275.38;;;14.37;77.31
69411;BME280;56604;48.652;9.194;2023-07-31T02:06:09;96277.75;;;14.34;77.61
69411;BME280;56604;48.652;9.194;2023-07-31T02:08:34;96276.19;;;14.33;77.85
69411;BME280;56604;48.652;9.194;2023-07-31T02:11:00;96273.78;;;14.36;77.52
69411;BME280;56604;48.652;9.194;2023-07-31T02:13:25;96272.75;;;14.32;78.23
69411;BME280;56604;48.652;9.194;2023-07-31T02:15:50;96274.88;;;14.30;77.56
69411;BME280;56604;48.652;9.194;2023-07-31T02:18:16;96264.28;;;14.30;78.67
69411;BME280;56604;48.652;9.194;2023-07-31T02:20:41;96258.47;;;14.28;77.81
69411;BME280;56604;48.652;9.194;2023-07-31T02:23:07;96254.34;;;14.12;78.33
69411;BME280;56604;48.652;9.194;2023-07-31T02:25:32;96254.28;;;14.17;77.95
69411;BME280;56604;48.652;9.194;2023-07-31T02:27:57;96250.63;;;14.13;77.68
69411;BME280;56604;48.652;9.194;2023-07-31T02:30:23;96249.53;;;14.14;79.20
69411;BME280;56604;48.652;9.194;2023-07-31T02:32:48;96249.06;;;14.07;78.55
69411;BME280;56604;48.652;9.194;2023-07-31T02:35:14;96241.69;;;13.99;78.78
69411;BME280;56604;48.652;9.194;2023-07-31T02:37:41;96240.66;;;13.94;79.21
69411;BME280;56604;48.652;9.194;2023-07-31T02:40:07;96242.78;;;13.92;79.60
69411;BME280;56604;48.652;9.194;2023-07-31T02:42:32;96234.84;;;13.92;80.57
69411;BME280;56604;48.652;9.194;2023-07-31T02:44:57;96242.78;;;13.92;79.38
69411;BME280;56604;48.652;9.194;2023-07-31T02:47:23;96239.06;;;13.93;79.69
69411;BME280;56604;48.652;9.194;2023-07-31T02:49:48;96234.78;;;14.03;79.60
69411;BME280;56604;48.652;9.194;2023-07-31T02:52:13;96237.69;;;14.06;79.12
69411;BME280;56604;48.652;9.194;2023-07-31T02:54:39;96241.38;;;14.10;79.47
69411;BME280;56604;48.652;9.194;2023-07-31T02:57:04;96245.84;;;14.15;78.40
69411;BME280;56604;48.652;9.194;2023-07-31T02:59:30;96226.81;;;14.13;78.28
69411;BME280;56604;48.652;9.194;2023-07-31T03:01:55;96222.56;;;14.17;78.90
69411;BME280;56604;48.652;9.194;2023-07-31T03:04:21;96218.34;;;14.16;79.02
69411;BME280;56604;48.652;9.194;2023-07-31T03:06:46;96223.16;;;14.09;77.84
69411;BME280;56604;48.652;9.194;2023-07-31T03:09:11;96211.81;;;14.03;77.86
69411;BME280;56604;48.652;9.194;2023-07-31T03:11:36;96218.38;;;14.06;78.20
69411;BME280;56604;48.652;9.194;2023-07-31T03:14:02;96212.53;;;14.14;78.52
69411;BME280;56604;48.652;9.194;2023-07-31T03:16:27;96213.63;;;14.08;78.23
69411;BME280;56604;48.652;9.194;2023-07-31T03:18:54;96211.22;;;14.11;78.03
69411;BME280;56604;48.652;9.194;2023-07-31T03:21:19;96213.59;;;14.18;77.31
69411;BME280;56604;48.652;9.194;2023-07-31T03:23:44;96216.13;;;14.33;77.88
69411;BME280;56604;48.652;9.194;2023-07-31T03:26:09;96219.31;;;14.35;78.13
69411;BME280;56604;48.652;9.194;2023-07-31T03:28:35;96223.50;;;14.42;77.20
69411;BME280;56604;48.652;9.194;2023-07-31T03:31:01;96223.19;;;14.48;77.27
69411;BME280;56604;48.652;9.194;2023-07-31T03:33:26;96217.66;;;14.55;75.85
69411;BME280;56604;48.652;9.194;2023-07-31T03:35:51;96219.94;;;14.67;76.35
69411;BME280;56604;48.652;9.194;2023-07-31T03:38:17;96216.00;;;14.64;75.58
69411;BME280;56604;48.652;9.194;2023-07-31T03:40:42;96218.13;;;14.57;75.11
69411;BME280;56604;48.652;9.194;2023-07-31T03:43:08;96213.91;;;14.56;74.80
69411;BME280;56604;48.652;9.194;2023-07-31T03:45:33;96221.28;;;14.64;75.83
69411;BME280;56604;48.652;9.194;2023-07-31T03:47:58;96208.56;;;14.66;74.78
69411;BME280;56604;48.652;9.194;2023-07-31T03:50:24;96211.66;;;14.78;75.66
69411;BME280;56604;48.652;9.194;2023-07-31T03:52:50;96221.09;;;14.90;75.04
69411;BME280;56604;48.652;9.194;2023-07-31T03:55:15;96223.16;;;14.98;74.78
69411;BME280;56604;48.652;9.194;2023-07-31T03:57:41;96215.03;;;14.89;73.43
69411;BME280;56604;48.652;9.194;2023-07-31T04:00:06;96218.44;;;14.90;74.34
69411;BME280;56604;48.652;9.194;2023-07-31T04:02:32;96219.78;;;14.87;73.59
69411;BME280;56604;48.652;9.194;2023-07-31T04:04:58;96216.81;;;14.94;73.71
69411;BME280;56604;48.652;9.194;2023-07-31T04:07:23;96230.44;;;15.11;73.40
69411;BME280;56604;48.652;9.194;2023-07-31T04:09:48;96221.31;;;15.27;73.60
69411;BME280;56604;48.652;9.194;2023-07-31T04:12:14;96220.69;;;15.36;73.48
69411;BME280;56604;48.652;9.194;2023-07-31T04:14:39;96217.44;;;15.44;73.10
69411;BME280;56604;48.652;9.194;2023-07-31T04:17:04;96229.53;;;15.55;72.10
69411;BME280;56604;48.652;9.194;2023-07-31T04:19:30;96224.13;;;15.65;71.76
69411;BME280;56604;48.652;9.194;2023-07-31T04:21:55;96223.81;;;15.72;70.82
69411;BME280;56604;48.652;9.194;2023-07-31T04:24:20;96219.88;;;15.69;70.23
69411;BME280;56604;48.652;9.194;2023-07-31T04:26:52;96223.75;;;16.01;70.10
69411;BME280;56604;48.652;9.194;2023-07-31T04:29:17;96209.25;;;15.93;69.80
69411;BME280;56604;48.652;9.194;2023-07-31T04:31:43;96211.38;;;16.15;70.39
69411;BME280;56604;48.652;9.194;2023-07-31T04:34:08;96204.22;;;16.35;67.75
69411;BME280;56604;48.652;9.194;2023-07-31T04:36:34;96207.97;;;16.34;67.62
69411;BME280;56604;48.652;9.194;2023-07-31T04:39:00;96200.13;;;16.42;68.63
69411;BME280;56604;48.652;9.194;2023-07-31T04:41:25;96207.44;;;16.70;67.51
69411;BME280;56604;48.652;9.194;2023-07-31T04:43:51;96215.13;;;16.71;68.00
69411;BME280;56604;48.652;9.194;2023-07-31T04:46:16;96214.88;;;16.68;68.34
69411;BME280;56604;48.652;9.194;2023-07-31T04:48:42;96213.53;;;16.51;67.84
69411;BME280;56604;48.652;9.194;2023-07-31T04:51:07;96220.28;;;16.62;68.01
69411;BME280;56604;48.652;9.194;2023-07-31T04:53:32;96217.53;;;16.68;68.46
69411;BME280;56604;48.652;9.194;2023-07-31T04:55:58;96223.28;;;16.75;68.05
69411;BME280;56604;48.652;9.194;2023-07-31T04:58:23;96218.94;;;16.65;67.53
69411;BME280;56604;48.652;9.194;2023-07-31T05:00:48;96213.25;;;16.72;68.44
69411;BME280;56604;48.652;9.194;2023-07-31T05:03:14;96212.53;;;16.47;67.84
69411;BME280;56604;48.652;9.194;2023-07-31T05:05:39;96219.06;;;16.55;67.86
69411;BME280;56604;48.652;9.194;2023-07-31T05:08:04;96203.78;;;16.66;68.10
69411;BME280;56604;48.652;9.194;2023-07-31T05:10:29;96208.06;;;16.61;68.34
69411;BME280;56604;48.652;9.194;2023-07-31T05:12:55;96208.38;;;16.79;69.57
69411;BME280;56604;48.652;9.194;2023-07-31T05:15:20;96209.91;;;16.85;68.27
69411;BME280;56604;48.652;9.194;2023-07-31T05:17:45;96214.31;;;16.90;68.37
69411;BME280;56604;48.652;9.194;2023-07-31T05:20:11;96211.22;;;17.01;67.73
69411;BME280;56604;48.652;9.194;2023-07-31T05:22:36;96221.09;;;17.15;66.97
69411;BME280;56604;48.652;9.194;2023-07-31T05:25:02;96214.81;;;17.24;66.26
69411;BME280;56604;48.652;9.194;2023-07-31T05:27:27;96195.38;;;17.57;65.76
69411;BME280;56604;48.652;9.194;2023-07-31T05:29:52;96206.19;;;18.29;63.97
69411;BME280;56604;48.652;9.194;2023-07-31T05:32:18;96203.88;;;19.09;60.98
69411;BME280;56604;48.652;9.194;2023-07-31T05:34:43;96213.03;;;19.48;59.72
69411;BME280;56604;48.652;9.194;2023-07-31T05:37:10;96205.53;;;19.90;57.93
69411;BME280;56604;48.652;9.194;2023-07-31T05:39:36;96213.59;;;20.07;56.64
69411;BME280;56604;48.652;9.194;2023-07-31T05:42:02;96208.13;;;20.12;57.27
69411;BME280;56604;48.652;9.194;2023-07-31T05:44:27;96214.25;;;21.26;55.17
69411;BME280;56604;48.652;9.194;2023-07-31T05:46:53;96205.06;;;21.62;52.68
69411;BME280;56604;48.652;9.194;2023-07-31T05:49:18;96207.16;;;22.45;50.53
69411;BME280;56604;48.652;9.194;2023-07-31T05:51:43;96209.00;;;22.74;50.12
69411;BME280;56604;48.652;9.194;2023-07-31T05:54:08;96212.06;;;23.06;49.25
69411;BME280;56604;48.652;9.194;2023-07-31T05:56:34;96209.69;;;22.20;49.05
69411;BME280;56604;48.652;9.194;2023-07-31T05:58:59;96213.50;;;21.81;50.41
69411;BME280;56604;48.652;9.194;2023-07-31T06:01:24;96205.38;;;22.28;50.37
69411;BME280;56604;48.652;9.194;2023-07-31T06:03:50;96207.88;;;22.33;49.61
69411;BME280;56604;48.652;9.194;2023-07-31T06:06:15;96203.19;;;22.72;49.03
69411;BME280;56604;48.652;9.194;2023-07-31T06:08:40;96200.06;;;22.49;50.44
69411;BME280;56604;48.652;9.194;2023-07-31T06:11:06;96204.84;;;21.20;52.90
69411;BME280;56604;48.652;9.194;2023-07-31T06:13:33;96208.81;;;21.05;52.07
69411;BME280;56604;48.652;9.194;2023-07-31T06:15:59;96203.72;;;21.29;53.55
69411;BME280;56604;48.652;9.194;2023-07-31T06:18:24;96200.81;;;20.61;53.99
69411;BME280;56604;48.652;9.194;2023-07-31T06:20:50;96210.53;;;20.57;54.85
69411;BME280;56604;48.652;9.194;2023-07-31T06:23:19;96203.34;;;20.58;55.51
69411;BME280;56604;48.652;9.194;2023-07-31T06:25:44;96203.38;;;20.09;56.59
69411;BME280;56604;48.652;9.194;2023-07-31T06:28:09;96207.34;;;21.25;54.58
69411;BME280;56604;48.652;9.194;2023-07-31T06:30:35;96202.53;;;22.33;51.84
69411;BME280;56604;48.652;9.194;2023-07-31T06:33:00;96201.97;;;22.19;50.55
69411;BME280;56604;48.652;9.194;2023-07-31T06:35:25;96209.91;;;23.32;49.09
69411;BME280;56604;48.652;9.194;2023-07-31T06:37:50;96205.59;;;23.65;45.48
69411;BME280;56604;48.652;9.194;2023-07-31T06:40:16;96211.88;;;23.11;48.02
69411;BME280;56604;48.652;9.194;2023-07-31T06:42:42;96219.78;;;23.53;46.96
69411;BME280;56604;48.652;9.194;2023-07-31T06:45:08;96216.66;;;23.51;47.08
69411;BME280;56604;48.652;9.194;2023-07-31T06:47:33;96211.25;;;23.26;48.32
69411;BME280;56604;48.652;9.194;2023-07-31T06:49:59;96217.53;;;23.43;47.94
69411;BME280;56604;48.652;9.194;2023-07-31T06:52:24;96213.75;;;22.89;49.37
69411;BME280;56604;48.652;9.194;2023-07-31T06:55:20;96212.72;;;22.61;50.27
69411;BME280;56604;48.652;9.194;2023-07-31T06:57:49;96217.00;;;23.16;48.35
69411;BME280;56604;48.652;9.194;2023-07-31T07:00:16;96210.88;;;23.16;47.68
69411;BME280;56604;48.652;9.194;2023-07-31T07:02:42;96215.09;;;23.62;47.90
69411;BME280;56604;48.652;9.194;2023-07-31T07:05:08;96219.75;;;23.74;46.60
69411;BME280;56604;48.652;9.194;2023-07-31T07:07:34;96228.66;;;23.20;47.33
69411;BME280;56604;48.652;9.194;2023-07-31T07:09:59;96217.25;;;23.11;47.97
69411;BME280;56604;48.652;9.194;2023-07-31T07:12:25;96215.63;;;21.96;49.22
69411;BME280;56604;48.652;9.194;2023-07-31T07:14:50;96222.75;;;22.22;50.90
69411;BME280;56604;48.652;9.194;2023-07-31T07:17:18;96218.88;;;22.40;49.53
69411;BME280;56604;48.652;9.194;2023-07-31T07:19:43;96216.31;;;22.44;50.60
69411;BME280;56604;48.652;9.194;2023-07-31T07:22:09;96217.84;;;21.56;51.92
69411;BME280;56604;48.652;9.194;2023-07-31T07:24:35;96210.72;;;21.98;51.64
69411;BME280;56604;48.652;9.194;2023-07-31T07:27:00;96222.50;;;21.03;53.57
69411;BME280;56604;48.652;9.194;2023-07-31T07:29:26;96213.03;;;21.15;53.09
69411;BME280;56604;48.652;9.194;2023-07-31T07:31:51;96210.16;;;21.54;52.69
69411;BME280;56604;48.652;9.194;2023-07-31T07:34:16;96212.38;;;21.35;53.28
69411;BME280;56604;48.652;9.194;2023-07-31T07:36:42;96209.53;;;21.40;52.94
69411;BME280;56604;48.652;9.194;2023-07-31T07:39:09;96201.44;;;21.66;53.18
69411;BME280;56604;48.652;9.194;2023-07-31T07:41:35;96206.25;;;21.34;54.10
69411;BME280;56604;48.652;9.194;2023-07-31T07:44:00;96209.75;;;20.83;55.13
69411;BME280;56604;48.652;9.194;2023-07-31T07:46:25;96202.81;;;21.72;53.25
69411;BME280;56604;48.652;9.194;2023-07-31T07:48:50;96197.09;;;22.21;52.52
69411;BME280;56604;48.652;9.194;2023-07-31T07:51:16;96203.22;;;22.84;49.94
69411;BME280;56604;48.652;9.194;2023-07-31T07:53:41;96203.94;;;22.94;49.91
69411;BME280;56604;48.652;9.194;2023-07-31T07:56:06;96204.97;;;23.92;47.49
69411;BME280;56604;48.652;9.194;2023-07-31T07:58:32;96190.50;;;24.46;46.36
69411;BME280;56604;48.652;9.194;2023-07-31T08:00:57;96192.44;;;24.74;45.38
69411;BME280;56604;48.652;9.194;2023-07-31T08:03:22;96196.63;;;25.43;43.98
69411;BME280;56604;48.652;9.194;2023-07-31T08:05:47;96197.34;;;24.43;44.98
69411;BME280;56604;48.652;9.194;2023-07-31T08:08:16;96195.25;;;25.65;44.45
69411;BME280;56604;48.652;9.194;2023-07-31T08:10:43;96197.69;;;25.86;43.12
69411;BME280;56604;48.652;9.194;2023-07-31T08:13:10;96194.72;;;25.60;42.21
69411;BME280;56604;48.652;9.194;2023-07-31T08:15:35;96190.31;;;25.67;42.07
69411;BME280;56604;48.652;9.194;2023-07-31T08:18:00;96188.28;;;24.48;44.54
69411;BME280;56604;48.652;9.194;2023-07-31T08:20:26;96186.69;;;24.47;45.15
69411;BME280;56604;48.652;9.194;2023-07-31T08:22:52;96178.88;;;25.26;43.04
69411;BME280;56604;48.652;9.194;2023-07-31T08:25:18;96183.31;;;24.38;44.10
69411;BME280;56604;48.652;9.194;2023-07-31T08:27:43;96173.88;;;25.12;43.09
69411;BME280;56604;48.652;9.194;2023-07-31T08:30:10;96172.25;;;26.54;41.54
69411;BME280;56604;48.652;9.194;2023-07-31T08:32:35;96167.19;;;27.11;39.46
69411;BME280;56604;48.652;9.194;2023-07-31T08:35:01;96155.72;;;27.60;38.25
69411;BME280;56604;48.652;9.194;2023-07-31T08:37:26;96160.59;;;27.28;37.84
69411;BME280;56604;48.652;9.194;2023-07-31T08:39:51;96170.00;;;26.76;39.03
69411;BME280;56604;48.652;9.194;2023-07-31T08:42:17;96166.28;;;27.23;37.24
69411;BME280;56604;48.652;9.194;2023-07-31T08:44:43;96166.50;;;28.36;36.31
69411;BME280;56604;48.652;9.194;2023-07-31T08:47:09;96161.25;;;28.20;36.60
69411;BME280;56604;48.652;9.194;2023-07-31T08:49:36;96149.63;;;28.43;35.57
69411;BME280;56604;48.652;9.194;2023-07-31T08:52:03;96139.47;;;27.33;37.41
69411;BME280;56604;48.652;9.194;2023-07-31T08:54:29;96143.59;;;27.27;37.29
69411;BME280;56604;48.652;9.194;2023-07-31T08:56:56;96153.97;;;27.25;38.13
69411;BME280;56604;48.652;9.194;2023-07-31T08:59:22;96153.75;;;27.34;38.11
69411;BME280;56604;48.652;9.194;2023-07-31T09:01:50;96153.44;;;27.16;37.62
69411;BME280;56604;48.652;9.194;2023-07-31T09:04:18;96141.22;;;27.03;38.13
69411;BME280;56604;48.652;9.194;2023-07-31T09:06:45;96152.84;;;26.48;38.60
69411;BME280;56604;48.652;9.194;2023-07-31T09:09:12;96149.56;;;26.20;38.93
69411;BME280;56604;48.652;9.194;2023-07-31T09:11:37;96142.44;;;26.86;38.90
69411;BME280;56604;48.652;9.194;2023-07-31T09:14:02;96135.69;;;26.96;39.92
69411;BME280;56604;48.652;9.194;2023-07-31T09:16:33;96139.09;;;27.58;39.25
69411;BME280;56604;48.652;9.194;2023-07-31T09:18:59;96135.56;;;26.88;39.57
69411;BME280;56604;48.652;9.194;2023-07-31T09:21:27;96129.00;;;27.78;37.77
69411;BME280;56604;48.652;9.194;2023-07-31T09:23:53;96133.13;;;27.72;38.17
69411;BME280;56604;48.652;9.194;2023-07-31T09:26:36;96138.53;;;26.64;38.49
69411;BME280;56604;48.652;9.194;2023-07-31T09:29:06;96130.97;;;26.15;40.11
69411;BME280;56604;48.652;9.194;2023-07-31T09:31:43;96129.63;;;27.94;37.93
69411;BME280;56604;48.652;9.194;2023-07-31T09:34:10;96132.53;;;29.40;36.18
69411;BME280;56604;48.652;9.194;2023-07-31T09:36:49;96144.34;;;28.54;37.62
69411;BME280;56604;48.652;9.194;2023-07-31T09:39:16;96141.47;;;28.13;37.08
69411;BME280;56604;48.652;9.194;2023-07-31T09:41:48;96138.53;;;28.25;37.15
69411;BME280;56604;48.652;9.194;2023-07-31T09:44:18;96128.19;;;26.66;38.22
69411;BME280;56604;48.652;9.194;2023-07-31T09:46:43;96129.84;;;25.65;41.27
69411;BME280;56604;48.652;9.194;2023-07-31T09:49:13;96126.81;;;25.50;42.08
69411;BME280;56604;48.652;9.194;2023-07-31T09:51:40;96116.03;;;24.75;42.50
69411;BME280;56604;48.652;9.194;2023-07-31T09:59:24;96100.13;;;24.01;45.54
69411;BME280;56604;48.652;9.194;2023-07-31T10:01:50;96094.75;;;24.69;45.03
69411;BME280;56604;48.652;9.194;2023-07-31T10:04:17;96090.81;;;25.58;43.40
69411;BME280;56604;48.652;9.194;2023-07-31T10:06:46;96080.03;;;25.74;41.70
69411;BME280;56604;48.652;9.194;2023-07-31T10:09:15;96084.59;;;25.39;41.63
69411;BME280;56604;48.652;9.194;2023-07-31T10:11:47;96077.44;;;26.13;41.55
69411;BME280;56604;48.652;9.194;2023-07-31T10:14:19;96071.03;;;27.03;41.46
69411;BME280;56604;48.652;9.194;2023-07-31T10:16:45;96050.00;;;26.08;40.83
69411;BME280;56604;48.652;9.194;2023-07-31T10:19:11;96052.97;;;26.02;41.08
69411;BME280;56604;48.652;9.194;2023-07-31T10:21:37;96061.75;;;26.58;40.75
69411;BME280;56604;48.652;9.194;2023-07-31T10:24:03;96064.69;;;26.91;39.11
69411;BME280;56604;48.652;9.194;2023-07-31T10:26:29;96054.66;;;26.69;39.29
69411;BME280;56604;48.652;9.194;2023-07-31T10:28:56;96057.59;;;26.83;40.38
69411;BME280;56604;48.652;9.194;2023-07-31T10:31:22;96059.50;;;26.60;39.61
69411;BME280;56604;48.652;9.194;2023-07-31T10:33:49;96056.22;;;26.31;39.37
69411;BME280;56604;48.652;9.194;2023-07-31T10:36:20;96052.00;;;26.30;39.09
69411;BME280;56604;48.652;9.194;2023-07-31T10:38:48;96045.72;;;25.87;40.28
69411;BME280;56604;48.652;9.194;2023-07-31T10:41:14;96041.38;;;25.47;41.54
69411;BME280;56604;48.652;9.194;2023-07-31T10:43:39;96043.88;;;25.40;42.56
69411;BME280;56604;48.652;9.194;2023-07-31T10:46:12;96037.34;;;25.92;41.27
69411;BME280;56604;48.652;9.194;2023-07-31T10:48:39;96032.97;;;26.03;41.90
69411;BME280;56604;48.652;9.194;2023-07-31T10:51:10;96035.16;;;25.63;41.55
69411;BME280;56604;48.652;9.194;2023-07-31T10:53:38;96043.03;;;26.65;41.20
69411;BME280;56604;48.652;9.194;2023-07-31T10:56:05;96035.28;;;26.86;40.05
69411;BME280;56604;48.652;9.194;2023-07-31T10:58:31;96045.59;;;26.58;40.01
69411;BME280;56604;48.652;9.194;2023-07-31T11:01:02;96032.66;;;26.47;40.51
69411;BME280;56604;48.652;9.194;2023-07-31T11:03:45;96038.00;;;26.24;41.35
69411;BME280;56604;48.652;9.194;2023-07-31T11:06:12;96028.78;;;26.25;41.73
69411;BME280;56604;48.652;9.194;2023-07-31T11:08:46;96029.53;;;26.45;42.01
69411;BME280;56604;48.652;9.194;2023-07-31T11:11:17;96023.94;;;26.15;41.57
69411;BME280;56604;48.652;9.194;2023-07-31T11:13:53;96022.22;;;26.88;40.57
69411;BME280;56604;48.652;9.194;2023-07-31T11:16:20;96025.59;;;26.00;40.31
69411;BME280;56604;48.652;9.194;2023-07-31T11:18:47;96021.56;;;26.72;40.53
69411;BME280;56604;48.652;9.194;2023-07-31T11:21:15;96032.19;;;26.42;40.45
69411;BME280;56604;48.652;9.194;2023-07-31T11:23:41;96030.75;;;25.39;42.05
69411;BME280;56604;48.652;9.194;2023-07-31T11:26:07;96031.69;;;26.17;41.30
69411;BME280;56604;48.652;9.194;2023-07-31T11:28:34;96022.06;;;26.16;41.39
69411;BME280;56604;48.652;9.194;2023-07-31T11:31:00;96028.34;;;26.04;40.35
69411;BME280;56604;48.652;9.194;2023-07-31T11:33:26;96020.41;;;25.56;42.20
69411;BME280;56604;48.652;9.194;2023-07-31T11:35:51;96018.38;;;25.34;42.17
69411;BME280;56604;48.652;9.194;2023-07-31T11:38:28;96022.09;;;24.98;43.79
69411;BME280;56604;48.652;9.194;2023-07-31T11:40:56;96019.91;;;25.35;42.49
69411;BME280;56604;48.652;9.194;2023-07-31T11:43:22;96026.44;;;25.02;42.62
69411;BME280;56604;48.652;9.194;2023-07-31T11:45:49;96031.47;;;24.88;43.66
69411;BME280;56604;48.652;9.194;2023-07-31T11:48:25;96030.88;;;25.10;44.06
69411;BME280;56604;48.652;9.194;2023-07-31T11:50:53;96023.75;;;24.71;44.25
69411;BME280;56604;48.652;9.194;2023-07-31T11:53:22;96026.09;;;24.44;45.26
69411;BME280;56604;48.652;9.194;2023-07-31T11:55:50;96024.47;;;23.99;46.30
69411;BME280;56604;48.652;9.194;2023-07-31T11:58:17;96014.50;;;24.28;45.50
69411;BME280;56604;48.652;9.194;2023-07-31T12:00:43;96007.06;;;24.49;45.67
69411;BME280;56604;48.652;9.194;2023-07-31T12:03:08;96006.06;;;24.13;45.98
69411;BME280;56604;48.652;9.194;2023-07-31T12:05:35;96001.25;;;23.78;46.52
69411;BME280;56604;48.652;9.194;2023-07-31T12:08:08;95990.13;;;23.92;47.00
69411;BME280;56604;48.652;9.194;2023-07-31T12:10:34;95977.72;;;23.88;46.62
69411;BME280;56604;48.652;9.194;2023-07-31T12:15:45;95978.47;;;23.60;48.17
69411;BME280;56604;48.652;9.194;2023-07-31T12:18:15;95983.50;;;23.49;48.07
69411;BME280;56604;48.652;9.194;2023-07-31T12:20:46;95974.03;;;23.40;47.82
69411;BME280;56604;48.652;9.194;2023-07-31T12:23:19;95979.81;;;23.54;47.52
69411;BME280;56604;48.652;9.194;2023-07-31T12:26:07;95974.88;;;23.56;47.54
69411;BME280;56604;48.652;9.194;2023-07-31T12:28:46;95969.22;;;23.45;47.72
69411;BME280;56604;48.652;9.194;2023-07-31T12:31:17;95966.06;;;23.55;47.40
69411;BME280;56604;48.652;9.194;2023-07-31T12:33:43;95966.78;;;23.40;48.90
69411;BME280;56604;48.652;9.194;2023-07-31T12:36:11;95974.69;;;23.49;48.64
69411;BME280;56604;48.652;9.194;2023-07-31T12:38:36;95973.22;;;23.51;48.77
69411;BME280;56604;48.652;9.194;2023-07-31T12:41:02;95963.97;;;23.37;49.01
69411;BME280;56604;48.652;9.194;2023-07-31T12:43:27;95958.84;;;23.31;48.14
69411;BME280;56604;48.652;9.194;2023-07-31T12:45:54;95955.94;;;23.24;49.10
69411;BME280;56604;48.652;9.194;2023-07-31T12:48:19;95956.63;;;23.21;48.89
69411;BME280;56604;48.652;9.194;2023-07-31T12:50:45;95948.25;;;22.98;49.74
69411;BME280;56604;48.652;9.194;2023-07-31T12:53:10;95941.66;;;22.96;48.75
69411;BME280;56604;48.652;9.194;2023-07-31T12:55:35;95938.31;;;22.99;48.79
69411;BME280;56604;48.652;9.194;2023-07-31T12:58:02;95923.97;;;23.19;49.34
69411;BME280;56604;48.652;9.194;2023-07-31T13:00:27;95916.75;;;23.60;49.88
69411;BME280;56604;48.652;9.194;2023-07-31T13:02:53;95909.09;;;23.62;47.67
69411;BME280;56604;48.652;9.194;2023-07-31T13:05:19;95914.19;;;23.51;48.25
69411;BME280;56604;48.652;9.194;2023-07-31T13:07:47;95905.66;;;23.62;47.00
69411;BME280;56604;48.652;9.194;2023-07-31T13:10:13;95910.00;;;23.26;48.13
69411;BME280;56604;48.652;9.194;2023-07-31T13:12:38;95905.56;;;23.58;47.59